Time;durP1;ratioP1;P1;durP2;ratioP2;P2;SDS_P1;SDS_P2;PMS_P1;PMS_P2;Temp;Humidity;BMP_temperature;BMP_pressure;BME280_temperature;BME280_humidity;BME280_pressure;Samples;Min_cycle;Max_cycle;Signal;HPM_P1;HPM_P2
2021/06/17 00:01:33;;;;;;;12.50;7.35;;;;;;;;;;5043554;28;20488;-72
2021/06/17 00:03:59;;;;;;;12.27;7.40;;;;;;;;;;5043179;28;20056;-71
2021/06/17 00:06:25;;;;;;;10.80;6.75;;;;;;;;;;5047711;28;20090;-72
2021/06/17 00:08:51;;;;;;;10.57;6.70;;;;;;;;;;5045983;28;20124;-71
2021/06/17 00:11:17;;;;;;;12.60;7.20;;;;;;;;;;5059087;28;20120;-72
2021/06/17 00:13:43;;;;;;;10.77;7.05;;;;;;;;;;5045403;28;20028;-72
2021/06/17 00:16:10;;;;;;;12.23;6.80;;;;;;;;;;5043411;28;20029;-72
2021/06/17 00:18:36;;;;;;;13.32;7.00;;;;;;;;;;5041764;28;20508;-72
2021/06/17 00:21:03;;;;;;;14.48;7.20;;;;;;;;;;5036108;28;20404;-72
2021/06/17 00:23:30;;;;;;;13.90;7.20;;;;;;;;;;5049267;28;20461;-72
2021/06/17 00:25:56;;;;;;;10.40;6.40;;;;;;;;;;5042222;28;20102;-72
2021/06/17 00:28:23;;;;;;;13.07;6.90;;;;;;;;;;5041914;28;20025;-71
2021/06/17 00:30:49;;;;;;;11.07;6.90;;;;;;;;;;5047602;28;20044;-72
2021/06/17 00:33:15;;;;;;;11.85;7.22;;;;;;;;;;5040838;28;20017;-72
2021/06/17 00:35:41;;;;;;;11.23;6.72;;;;;;;;;;5040533;28;20029;-72
2021/06/17 00:38:07;;;;;;;11.48;6.70;;;;;;;;;;5036971;28;20021;-70
2021/06/17 00:40:34;;;;;;;11.40;6.90;;;;;;;;;;5047495;28;20037;-71
2021/06/17 00:43:00;;;;;;;9.63;6.18;;;;;;;;;;5031322;28;20032;-71
2021/06/17 00:45:26;;;;;;;13.95;7.22;;;;;;;;;;5043753;28;20076;-70
2021/06/17 00:47:53;;;;;;;11.55;7.40;;;;;;;;;;5036072;28;20128;-70
2021/06/17 00:50:19;;;;;;;11.90;7.13;;;;;;;;;;5041931;28;20047;-70
2021/06/17 00:52:45;;;;;;;10.75;7.00;;;;;;;;;;5035796;28;20029;-71
2021/06/17 00:55:14;;;;;;;11.63;6.40;;;;;;;;;;5048389;28;20025;-71
2021/06/17 00:57:40;;;;;;;12.57;7.38;;;;;;;;;;5048274;28;20171;-71
2021/06/17 01:00:08;;;;;;;10.98;6.90;;;;;;;;;;5048950;28;20021;-70
2021/06/17 01:02:34;;;;;;;13.63;6.63;;;;;;;;;;5042931;28;20024;-71
2021/06/17 01:05:00;;;;;;;14.52;6.93;;;;;;;;;;5043460;28;20039;-71
2021/06/17 01:07:30;;;;;;;12.23;6.78;;;;;;;;;;5039914;28;20037;-72
2021/06/17 01:10:05;;;;;;;11.30;7.05;;;;;;;;;;5045715;28;20024;-72
2021/06/17 01:12:36;;;;;;;12.38;6.70;;;;;;;;;;5036122;28;20029;-72
2021/06/17 01:15:09;;;;;;;12.13;6.60;;;;;;;;;;5039718;28;20057;-73
2021/06/17 01:17:42;;;;;;;13.65;6.85;;;;;;;;;;5044641;28;20045;-72
2021/06/17 01:20:14;;;;;;;12.02;7.40;;;;;;;;;;5049445;28;20024;-72
2021/06/17 01:22:51;;;;;;;12.18;7.05;;;;;;;;;;5050419;28;20072;-72
2021/06/17 01:25:17;;;;;;;10.73;6.80;;;;;;;;;;5066152;28;20036;-72
2021/06/17 01:28:07;;;;;;;10.63;6.70;;;;;;;;;;5035236;28;20075;-73
2021/06/17 01:30:33;;;;;;;;;;;;;;;;;;5041146;28;20087;-73
2021/06/17 01:33:01;;;;;;;11.02;6.57;;;;;;;;;;5036363;28;19912;-73
2021/06/17 01:35:28;;;;;;;12.45;7.03;;;;;;;;;;5045215;28;20282;-73
2021/06/17 01:37:59;;;;;;;11.70;6.80;;;;;;;;;;5044411;28;20411;-72
2021/06/17 01:40:29;;;;;;;10.23;6.80;;;;;;;;;;5042977;28;20025;-72
2021/06/17 01:42:56;;;;;;;11.10;7.10;;;;;;;;;;5047672;28;20036;-73
2021/06/17 01:45:23;;;;;;;12.15;7.40;;;;;;;;;;5038681;28;20108;-72
2021/06/17 01:47:51;;;;;;;11.88;7.28;;;;;;;;;;5040492;28;20072;-74
2021/06/17 01:50:17;;;;;;;11.27;7.05;;;;;;;;;;5045824;28;20530;-73
2021/06/17 01:52:43;;;;;;;11.75;7.03;;;;;;;;;;5042011;28;20078;-73
2021/06/17 01:55:10;;;;;;;12.98;7.15;;;;;;;;;;5040617;28;20476;-72
2021/06/17 01:57:36;;;;;;;15.18;7.10;;;;;;;;;;5045592;28;20209;-72
2021/06/17 02:00:03;;;;;;;11.18;7.10;;;;;;;;;;5047906;28;20032;-72
2021/06/17 02:02:29;;;;;;;10.68;7.07;;;;;;;;;;5044509;28;20018;-71
2021/06/17 02:04:56;;;;;;;11.80;7.40;;;;;;;;;;5043315;28;20043;-72
2021/06/17 02:07:24;;;;;;;12.02;6.90;;;;;;;;;;5047951;28;20079;-72
2021/06/17 02:09:52;;;;;;;14.75;8.00;;;;;;;;;;5064213;28;20141;-72
2021/06/17 02:12:18;;;;;;;10.73;6.40;;;;;;;;;;5051970;28;20021;-71
2021/06/17 02:14:44;;;;;;;13.35;8.05;;;;;;;;;;5051904;28;20465;-71
2021/06/17 02:17:11;;;;;;;12.15;6.95;;;;;;;;;;5047872;28;20018;-71
2021/06/17 02:19:37;;;;;;;12.30;7.53;;;;;;;;;;5051459;28;20465;-71
2021/06/17 02:22:04;;;;;;;11.93;7.15;;;;;;;;;;5049015;28;20094;-71
2021/06/17 02:24:31;;;;;;;10.52;6.47;;;;;;;;;;5062610;28;20120;-71
2021/06/17 02:27:01;;;;;;;13.70;6.88;;;;;;;;;;5050274;28;20067;-71
2021/06/17 02:29:29;;;;;;;10.55;7.15;;;;;;;;;;5047950;28;20036;-70
2021/06/17 02:31:57;;;;;;;11.82;7.10;;;;;;;;;;5043765;28;20030;-71
2021/06/17 02:34:24;;;;;;;11.80;7.20;;;;;;;;;;5048265;28;20029;-71
2021/06/17 02:36:51;;;;;;;11.32;7.10;;;;;;;;;;5046045;28;20106;-72
2021/06/17 02:39:20;;;;;;;11.98;7.30;;;;;;;;;;5043015;28;20048;-72
2021/06/17 02:41:49;;;;;;;10.63;6.80;;;;;;;;;;5046254;28;20057;-72
2021/06/17 02:44:15;;;;;;;11.00;6.88;;;;;;;;;;5042703;28;20409;-72
2021/06/17 02:46:41;;;;;;;11.73;6.80;;;;;;;;;;5055067;28;20041;-71
2021/06/17 02:49:08;;;;;;;11.75;7.13;;;;;;;;;;5043774;28;20394;-71
2021/06/17 02:51:35;;;;;;;11.88;7.18;;;;;;;;;;5039791;28;20053;-72
2021/06/17 02:54:01;;;;;;;11.95;6.90;;;;;;;;;;5047029;28;20385;-72
2021/06/17 02:56:53;;;;;;;11.93;7.22;;;;;;;;;;5042199;28;20045;-72
2021/06/17 02:59:22;;;;;;;12.57;7.07;;;;;;;;;;5021814;28;20440;-72
2021/06/17 03:01:49;;;;;;;11.50;6.90;;;;;;;;;;5042875;28;20112;-73
2021/06/17 03:04:17;;;;;;;12.23;7.22;;;;;;;;;;5054023;28;20417;-72
2021/06/17 03:06:47;;;;;;;12.60;7.75;;;;;;;;;;5049674;28;20044;-72
2021/06/17 03:09:14;;;;;;;13.82;7.03;;;;;;;;;;5047467;28;20067;-71
2021/06/17 03:11:41;;;;;;;14.00;7.25;;;;;;;;;;5049731;28;20075;-71
2021/06/17 03:14:13;;;;;;;13.18;7.60;;;;;;;;;;5048586;28;20021;-72
2021/06/17 03:16:40;;;;;;;14.73;7.28;;;;;;;;;;5049336;28;20411;-71
2021/06/17 03:19:08;;;;;;;12.55;7.60;;;;;;;;;;5040335;28;20567;-72
2021/06/17 03:21:37;;;;;;;13.13;7.85;;;;;;;;;;5049179;28;20508;-72
2021/06/17 03:24:04;;;;;;;12.52;6.88;;;;;;;;;;5046438;28;20112;-71
2021/06/17 03:26:31;;;;;;;11.23;6.95;;;;;;;;;;5048836;28;20065;-72
2021/06/17 03:28:58;;;;;;;13.02;7.32;;;;;;;;;;5045019;28;20064;-72
2021/06/17 03:31:26;;;;;;;12.20;7.10;;;;;;;;;;5053662;28;20107;-73
2021/06/17 03:33:53;;;;;;;14.02;7.53;;;;;;;;;;5041463;28;20013;-73
2021/06/17 03:36:19;;;;;;;13.82;6.97;;;;;;;;;;5050724;28;20460;-72
2021/06/17 03:38:46;;;;;;;12.98;7.28;;;;;;;;;;5048675;28;20108;-72
2021/06/17 03:41:13;;;;;;;13.80;6.95;;;;;;;;;;5041658;28;20368;-72
2021/06/17 03:43:39;;;;;;;12.63;7.88;;;;;;;;;;5046114;28;20532;-72
2021/06/17 03:46:06;;;;;;;15.38;7.82;;;;;;;;;;5043056;28;20029;-72
2021/06/17 03:48:32;;;;;;;13.25;7.50;;;;;;;;;;5044882;28;20033;-72
2021/06/17 03:51:00;;;;;;;12.77;6.97;;;;;;;;;;5046057;28;20013;-73
2021/06/17 03:53:26;;;;;;;14.82;7.60;;;;;;;;;;5045600;28;20036;-73
2021/06/17 03:55:53;;;;;;;12.80;7.47;;;;;;;;;;5039057;28;20044;-72
2021/06/17 03:58:22;;;;;;;12.93;7.03;;;;;;;;;;5049079;28;20082;-72
2021/06/17 04:00:48;;;;;;;12.75;7.18;;;;;;;;;;5035727;28;20423;-72
2021/06/17 04:03:14;;;;;;;13.98;7.40;;;;;;;;;;5055285;28;20021;-73
2021/06/17 04:05:40;;;;;;;11.85;7.38;;;;;;;;;;5047631;28;20075;-72
2021/06/17 04:08:09;;;;;;;12.93;7.18;;;;;;;;;;5049342;28;20037;-73
2021/06/17 04:10:36;;;;;;;11.03;7.03;;;;;;;;;;5048556;28;20063;-72
2021/06/17 04:13:02;;;;;;;11.23;7.15;;;;;;;;;;5040876;28;20036;-73
2021/06/17 04:15:30;;;;;;;13.32;7.57;;;;;;;;;;5043107;28;20025;-73
2021/06/17 04:18:00;;;;;;;12.43;7.05;;;;;;;;;;5041732;28;20026;-73
2021/06/17 04:20:27;;;;;;;11.90;7.22;;;;;;;;;;5046030;28;20100;-73
2021/06/17 04:22:54;;;;;;;12.27;7.03;;;;;;;;;;5044370;28;20095;-73
2021/06/17 04:25:21;;;;;;;12.05;7.32;;;;;;;;;;5043860;28;20112;-73
2021/06/17 04:27:48;;;;;;;12.85;6.93;;;;;;;;;;5042473;28;20056;-73
2021/06/17 04:30:15;;;;;;;14.60;6.43;;;;;;;;;;5041974;28;20096;-73
2021/06/17 04:32:42;;;;;;;13.60;7.22;;;;;;;;;;5037996;28;20025;-73
2021/06/17 04:35:10;;;;;;;12.55;6.53;;;;;;;;;;5061502;28;20119;-74
2021/06/17 04:37:37;;;;;;;12.73;7.05;;;;;;;;;;5032955;28;20022;-74
2021/06/17 04:40:03;;;;;;;11.82;7.05;;;;;;;;;;5046933;28;20542;-73
2021/06/17 04:42:30;;;;;;;11.05;6.43;;;;;;;;;;5034574;28;20022;-74
2021/06/17 04:44:57;;;;;;;11.05;6.65;;;;;;;;;;5038291;28;20029;-74
2021/06/17 04:47:23;;;;;;;17.15;7.35;;;;;;;;;;5048516;28;20025;-73
2021/06/17 04:49:49;;;;;;;13.68;6.72;;;;;;;;;;5049377;28;20358;-74
2021/06/17 04:52:19;;;;;;;12.25;6.22;;;;;;;;;;5032809;28;20025;-73
2021/06/17 04:54:45;;;;;;;13.45;6.85;;;;;;;;;;5034366;28;20033;-73
2021/06/17 04:57:11;;;;;;;13.07;6.65;;;;;;;;;;5032366;28;20547;-73
2021/06/17 04:59:37;;;;;;;12.23;6.40;;;;;;;;;;5036109;28;20029;-73
2021/06/17 05:02:04;;;;;;;12.40;6.93;;;;;;;;;;5036877;28;20476;-74
2021/06/17 05:04:30;;;;;;;12.20;6.50;;;;;;;;;;5031376;28;20453;-74
2021/06/17 05:12:17;;;;;;;10.38;6.55;;;;;;;;;;5034024;28;20171;-74
2021/06/17 05:14:43;;;;;;;13.18;6.63;;;;;;;;;;5040779;28;20026;-74
2021/06/17 05:17:09;;;;;;;12.40;6.63;;;;;;;;;;5065332;28;20458;-74
2021/06/17 05:19:35;;;;;;;11.80;7.03;;;;;;;;;;5045578;28;20436;-73
2021/06/17 05:22:02;;;;;;;12.48;6.85;;;;;;;;;;5041899;28;20416;-73
2021/06/17 05:24:28;;;;;;;12.88;6.97;;;;;;;;;;5035030;28;20034;-75
2021/06/17 05:26:54;;;;;;;11.63;6.47;;;;;;;;;;5038723;28;20037;-75
2021/06/17 05:29:20;;;;;;;15.13;6.97;;;;;;;;;;5043292;28;20120;-74
2021/06/17 05:31:46;;;;;;;11.85;6.50;;;;;;;;;;5040762;28;20025;-73
2021/06/17 05:34:12;;;;;;;12.25;6.93;;;;;;;;;;5043305;28;20071;-73
2021/06/17 05:36:38;;;;;;;10.55;6.57;;;;;;;;;;5046359;28;20413;-73
2021/06/17 05:39:05;;;;;;;11.32;6.05;;;;;;;;;;5042709;28;20525;-74
2021/06/17 05:41:31;;;;;;;17.10;6.60;;;;;;;;;;5036489;28;20021;-74
2021/06/17 05:43:57;;;;;;;13.38;6.72;;;;;;;;;;5047174;28;20017;-73
2021/06/17 05:46:23;;;;;;;12.13;5.88;;;;;;;;;;5047254;28;20116;-74
2021/06/17 05:48:49;;;;;;;10.77;6.43;;;;;;;;;;5045433;28;20060;-74
2021/06/17 05:51:15;;;;;;;13.43;6.30;;;;;;;;;;5044369;28;20084;-77
2021/06/17 05:53:41;;;;;;;13.63;6.88;;;;;;;;;;5048062;28;20052;-74
2021/06/17 05:56:07;;;;;;;12.18;6.10;;;;;;;;;;5047313;28;20477;-74
2021/06/17 05:58:35;;;;;;;11.27;6.35;;;;;;;;;;5047745;28;20021;-74
2021/06/17 06:01:01;;;;;;;13.73;7.05;;;;;;;;;;5032013;28;20028;-74
2021/06/17 06:03:27;;;;;;;12.25;6.35;;;;;;;;;;5036011;28;20060;-74
2021/06/17 06:05:53;;;;;;;11.75;6.50;;;;;;;;;;5030370;28;20032;-74
2021/06/17 06:08:19;;;;;;;13.80;6.45;;;;;;;;;;5035041;28;20029;-74
2021/06/17 06:10:45;;;;;;;12.85;6.10;;;;;;;;;;5033098;28;20053;-74
2021/06/17 06:13:11;;;;;;;16.23;5.75;;;;;;;;;;5041602;28;20162;-74
2021/06/17 06:15:37;;;;;;;11.55;5.90;;;;;;;;;;5038801;28;20506;-75
2021/06/17 06:18:07;;;;;;;10.73;5.88;;;;;;;;;;5039831;28;20497;-77
2021/06/17 06:20:33;;;;;;;;;;;;;;;;;;5040981;28;20076;-77
2021/06/17 06:22:59;;;;;;;9.52;5.40;;;;;;;;;;5047391;28;19917;-76
2021/06/17 06:25:25;;;;;;;10.52;5.85;;;;;;;;;;5048455;28;20037;-77
2021/06/17 06:27:52;;;;;;;10.95;5.55;;;;;;;;;;5035168;28;20029;-77
2021/06/17 06:30:18;;;;;;;11.10;5.13;;;;;;;;;;5046610;28;20151;-77
2021/06/17 06:32:44;;;;;;;12.27;5.78;;;;;;;;;;5046980;28;20029;-76
2021/06/17 06:35:10;;;;;;;10.15;5.18;;;;;;;;;;5041852;28;20022;-76
2021/06/17 06:37:37;;;;;;;10.38;5.40;;;;;;;;;;5039043;28;20024;-77
2021/06/17 06:40:04;;;;;;;10.00;4.95;;;;;;;;;;5056219;28;20366;-77
2021/06/17 06:42:29;;;;;;;9.68;4.85;;;;;;;;;;5042020;28;20024;-77
2021/06/17 06:44:56;;;;;;;12.57;6.63;;;;;;;;;;5051319;28;20031;-77
2021/06/17 06:47:22;;;;;;;8.98;4.93;;;;;;;;;;5047961;28;20037;-77
2021/06/17 06:49:48;;;;;;;10.38;5.28;;;;;;;;;;5046776;28;20036;-76
2021/06/17 06:52:15;;;;;;;10.50;5.13;;;;;;;;;;5044663;28;20025;-77
2021/06/17 06:54:41;;;;;;;12.05;5.50;;;;;;;;;;5048555;28;20431;-77
2021/06/17 06:57:07;;;;;;;11.73;5.65;;;;;;;;;;5049200;28;20037;-77
2021/06/17 06:59:33;;;;;;;11.18;5.00;;;;;;;;;;5050119;28;20029;-76
2021/06/17 07:01:59;;;;;;;12.15;4.78;;;;;;;;;;5045288;28;20026;-77
2021/06/17 07:04:25;;;;;;;11.38;5.03;;;;;;;;;;5050062;28;20021;-76
2021/06/17 07:06:51;;;;;;;10.02;5.10;;;;;;;;;;5038475;28;20080;-77
2021/06/17 07:09:17;;;;;;;10.57;4.95;;;;;;;;;;5049059;28;20090;-76
2021/06/17 07:11:45;;;;;;;10.80;5.40;;;;;;;;;;5050076;28;20029;-75
2021/06/17 07:14:11;;;;;;;10.15;5.68;;;;;;;;;;5039406;28;20487;-76
2021/06/17 07:16:37;;;;;;;13.70;5.65;;;;;;;;;;5050067;28;20100;-77
2021/06/17 07:19:06;;;;;;;9.50;4.93;;;;;;;;;;5045576;28;20109;-76
2021/06/17 07:21:33;;;;;;;13.60;5.75;;;;;;;;;;5049713;28;20461;-76
2021/06/17 07:23:59;;;;;;;13.90;5.35;;;;;;;;;;5047227;28;20037;-77
2021/06/17 07:26:28;;;;;;;11.20;5.85;;;;;;;;;;5044878;28;20036;-76
2021/06/17 07:28:55;;;;;;;10.55;5.35;;;;;;;;;;5048261;28;20028;-77
2021/06/17 07:31:21;;;;;;;11.50;6.03;;;;;;;;;;5041171;28;20429;-77
2021/06/17 07:33:47;;;;;;;9.77;5.35;;;;;;;;;;5039626;28;20025;-77
2021/06/17 07:36:14;;;;;;;14.18;6.05;;;;;;;;;;5045377;28;20033;-76
2021/06/17 07:38:40;;;;;;;8.90;5.25;;;;;;;;;;5039934;28;20021;-76
2021/06/17 07:41:06;;;;;;;11.60;5.85;;;;;;;;;;5047947;28;20024;-76
2021/06/17 07:43:32;;;;;;;9.65;5.10;;;;;;;;;;5041515;28;20016;-77
2021/06/17 07:45:59;;;;;;;10.75;5.78;;;;;;;;;;5048770;28;20408;-77
2021/06/17 07:48:26;;;;;;;10.55;5.25;;;;;;;;;;5055013;28;20110;-77
2021/06/17 07:50:52;;;;;;;11.63;5.30;;;;;;;;;;5036455;28;20018;-76
2021/06/17 07:53:18;;;;;;;10.63;5.40;;;;;;;;;;5042918;28;20634;-76
2021/06/17 07:55:45;;;;;;;17.10;5.15;;;;;;;;;;5054520;28;20453;-76
2021/06/17 07:58:11;;;;;;;9.07;4.85;;;;;;;;;;5051630;28;20381;-78
2021/06/17 08:00:37;;;;;;;10.15;4.75;;;;;;;;;;5037739;28;20021;-78
2021/06/17 08:03:03;;;;;;;9.18;4.65;;;;;;;;;;5049752;28;20392;-77
2021/06/17 08:05:31;;;;;;;10.57;4.80;;;;;;;;;;5058529;28;20018;-77
2021/06/17 08:07:57;;;;;;;9.07;4.45;;;;;;;;;;5049095;28;20040;-77
2021/06/17 08:10:26;;;;;;;7.53;4.20;;;;;;;;;;5048379;28;20099;-77
2021/06/17 08:12:52;;;;;;;9.93;4.23;;;;;;;;;;5046689;28;20037;-77
2021/06/17 08:15:19;;;;;;;11.00;4.07;;;;;;;;;;5058107;28;20801;-78
2021/06/17 08:17:45;;;;;;;8.43;4.40;;;;;;;;;;5046106;28;20444;-78
2021/06/17 08:20:12;;;;;;;10.95;4.28;;;;;;;;;;5043757;28;20358;-78
2021/06/17 08:22:38;;;;;;;10.40;4.50;;;;;;;;;;5039680;28;20212;-78
2021/06/17 08:25:05;;;;;;;10.70;4.00;;;;;;;;;;5050992;28;20367;-79
2021/06/17 08:27:31;;;;;;;11.90;4.70;;;;;;;;;;5045266;28;20155;-78
2021/06/17 08:29:57;;;;;;;8.40;4.10;;;;;;;;;;5039955;28;20047;-78
2021/06/17 08:32:23;;;;;;;8.82;4.30;;;;;;;;;;5046053;28;20025;-77
2021/06/17 08:34:49;;;;;;;9.20;4.22;;;;;;;;;;5039160;28;20020;-79
2021/06/17 08:37:15;;;;;;;7.68;4.25;;;;;;;;;;5040840;28;20466;-78
2021/06/17 08:39:42;;;;;;;11.32;4.50;;;;;;;;;;5038408;28;20021;-78
2021/06/17 08:42:08;;;;;;;8.32;4.18;;;;;;;;;;5045932;28;20119;-77
2021/06/17 08:44:34;;;;;;;8.18;3.85;;;;;;;;;;5042432;28;20381;-79
2021/06/17 08:47:00;;;;;;;9.40;4.40;;;;;;;;;;5039546;28;20037;-78
2021/06/17 08:49:27;;;;;;;8.52;4.18;;;;;;;;;;5045102;28;20545;-78
2021/06/17 08:51:58;;;;;;;11.48;4.60;;;;;;;;;;5047669;28;20112;-77
2021/06/17 08:54:25;;;;;;;10.13;4.22;;;;;;;;;;5036983;28;20025;-78
2021/06/17 08:56:52;;;;;;;7.82;3.90;;;;;;;;;;5041496;28;20131;-79
2021/06/17 08:59:18;;;;;;;12.07;4.10;;;;;;;;;;5048190;28;20078;-79
2021/06/17 09:01:54;;;;;;;9.93;3.95;;;;;;;;;;5048088;28;20039;-78
2021/06/17 09:04:23;;;;;;;8.35;4.25;;;;;;;;;;5037189;28;20473;-78
2021/06/17 09:06:49;;;;;;;;;;;;;;;;;;5040722;28;20476;-78
2021/06/17 09:09:15;;;;;;;8.27;3.90;;;;;;;;;;5047037;28;19916;-76
2021/06/17 09:11:41;;;;;;;8.55;4.28;;;;;;;;;;5046441;28;20016;-76
2021/06/17 09:14:13;;;;;;;8.38;4.15;;;;;;;;;;5045196;28;20036;-76
2021/06/17 09:16:39;;;;;;;10.23;4.10;;;;;;;;;;5044472;28;20027;-75
2021/06/17 09:19:05;;;;;;;8.27;4.00;;;;;;;;;;5043091;28;20100;-76
2021/06/17 09:21:31;;;;;;;10.07;4.00;;;;;;;;;;5062569;28;20025;-76
2021/06/17 09:23:58;;;;;;;7.15;3.60;;;;;;;;;;5043156;28;20025;-76
2021/06/17 09:26:28;;;;;;;7.45;3.72;;;;;;;;;;5044860;28;20592;-76
2021/06/17 09:29:04;;;;;;;9.93;3.50;;;;;;;;;;5048551;28;20596;-76
2021/06/17 09:31:31;;;;;;;7.35;3.83;;;;;;;;;;5035787;28;20017;-76
2021/06/17 09:33:58;;;;;;;9.75;3.83;;;;;;;;;;5045301;28;20097;-75
2021/06/17 09:36:25;;;;;;;8.15;3.25;;;;;;;;;;5038722;28;20151;-76
2021/06/17 09:38:52;;;;;;;7.13;3.17;;;;;;;;;;5047729;28;20488;-76
2021/06/17 09:41:34;;;;;;;7.15;3.50;;;;;;;;;;5056826;28;20603;-75
2021/06/17 09:44:00;;;;;;;7.28;3.20;;;;;;;;;;5042707;28;20021;-75
2021/06/17 09:46:27;;;;;;;9.15;3.80;;;;;;;;;;5043082;28;20124;-75
2021/06/17 09:48:53;;;;;;;7.75;3.83;;;;;;;;;;5053496;28;20025;-76
2021/06/17 09:51:22;;;;;;;7.80;3.88;;;;;;;;;;5047170;28;20029;-76
2021/06/17 09:53:48;;;;;;;7.70;3.50;;;;;;;;;;5039722;28;20105;-76
2021/06/17 09:56:15;;;;;;;10.30;3.03;;;;;;;;;;5034132;28;20045;-75
2021/06/17 09:58:47;;;;;;;9.52;3.00;;;;;;;;;;5037965;28;20033;-77
2021/06/17 10:01:16;;;;;;;8.35;3.33;;;;;;;;;;5044664;28;20064;-77
2021/06/17 10:03:42;;;;;;;5.65;2.63;;;;;;;;;;5059154;28;20037;-76
2021/06/17 10:06:21;;;;;;;7.63;3.53;;;;;;;;;;5039151;28;20057;-76
2021/06/17 10:08:47;;;;;;;8.80;3.28;;;;;;;;;;5056895;28;20032;-76
2021/06/17 10:11:14;;;;;;;7.25;2.95;;;;;;;;;;5045350;28;20021;-76
2021/06/17 10:13:41;;;;;;;7.22;3.20;;;;;;;;;;5042967;28;20025;-76
2021/06/17 10:16:07;;;;;;;6.82;3.08;;;;;;;;;;5048504;28;20029;-76
2021/06/17 10:18:33;;;;;;;5.78;2.90;;;;;;;;;;5047757;28;20029;-76
2021/06/17 10:20:59;;;;;;;8.27;3.10;;;;;;;;;;5045807;28;20029;-76
2021/06/17 10:23:25;;;;;;;7.18;3.40;;;;;;;;;;5048607;28;20033;-76
2021/06/17 10:25:51;;;;;;;6.55;3.28;;;;;;;;;;5048575;28;20040;-76
2021/06/17 10:28:36;;;;;;;8.63;3.60;;;;;;;;;;5066156;28;20032;-76
2021/06/17 10:31:02;;;;;;;6.88;2.75;;;;;;;;;;5046508;28;20110;-75
2021/06/17 10:33:34;;;;;;;9.02;3.03;;;;;;;;;;5065003;28;20029;-75
2021/06/17 10:36:51;;;;;;;6.53;2.70;;;;;;;;;;5044507;28;20022;-76
2021/06/17 10:39:10;;;;;;;5.65;2.70;;;;;;;;;;5039850;28;20024;-76
2021/06/17 10:42:03;;;;;;;7.55;2.83;;;;;;;;;;5046226;28;20466;-77
2021/06/17 10:44:49;;;;;;;11.85;4.25;;;;;;;;;;5046766;28;20167;-76
2021/06/17 10:47:33;;;;;;;6.97;3.10;;;;;;;;;;5044511;28;20030;-77
2021/06/17 10:50:13;;;;;;;6.90;3.15;;;;;;;;;;5054310;28;20083;-76
2021/06/17 10:52:40;;;;;;;7.20;2.80;;;;;;;;;;5043553;28;20052;-75
2021/06/17 10:55:07;;;;;;;6.05;2.85;;;;;;;;;;5034728;28;20053;-76
2021/06/17 10:57:48;;;;;;;8.05;3.10;;;;;;;;;;5039945;28;20041;-76
2021/06/17 11:02:56;;;;;;;7.40;2.90;;;;;;;;;;5047068;28;20456;-75
2021/06/17 11:05:32;;;;;;;5.80;2.60;;;;;;;;;;5057678;28;20491;-76
2021/06/17 11:08:17;;;;;;;5.68;2.60;;;;;;;;;;5061512;28;20087;-76
2021/06/17 11:10:49;;;;;;;7.05;2.60;;;;;;;;;;5044369;28;20029;-77
2021/06/17 11:13:30;;;;;;;7.85;2.83;;;;;;;;;;5044142;28;20032;-76
2021/06/17 11:15:57;;;;;;;8.13;2.83;;;;;;;;;;5041969;28;20076;-75
2021/06/17 11:18:49;;;;;;;6.95;2.60;;;;;;;;;;5045372;28;20401;-77
2021/06/17 11:21:24;;;;;;;6.05;2.70;;;;;;;;;;5044982;28;20024;-77
2021/06/17 11:23:51;;;;;;;8.90;2.85;;;;;;;;;;5044995;28;20468;-76
2021/06/17 11:26:36;;;;;;;7.20;2.72;;;;;;;;;;5043053;28;20480;-76
2021/06/17 11:29:02;;;;;;;5.72;2.45;;;;;;;;;;5044896;28;20029;-76
2021/06/17 11:31:41;;;;;;;6.60;2.70;;;;;;;;;;5063311;28;20527;-76
2021/06/17 11:34:08;;;;;;;8.38;2.90;;;;;;;;;;5043171;28;20033;-76
2021/06/17 11:36:34;;;;;;;6.32;3.03;;;;;;;;;;5045099;28;20013;-75
2021/06/17 11:39:03;;;;;;;8.18;2.80;;;;;;;;;;5037398;28;20095;-76
2021/06/17 11:41:30;;;;;;;6.93;2.90;;;;;;;;;;5042212;28;21214;-76
2021/06/17 11:44:00;;;;;;;6.05;3.10;;;;;;;;;;5031570;28;20022;-76
2021/06/17 11:46:31;;;;;;;6.05;2.80;;;;;;;;;;5041506;28;20071;-76
2021/06/17 11:49:00;;;;;;;7.80;2.70;;;;;;;;;;5042655;28;20385;-76
2021/06/17 11:51:27;;;;;;;6.13;2.80;;;;;;;;;;5048848;28;20492;-75
2021/06/17 11:53:54;;;;;;;8.48;3.20;;;;;;;;;;5045983;28;20060;-75
2021/06/17 11:56:24;;;;;;;6.47;2.90;;;;;;;;;;5048917;28;20452;-75
2021/06/17 11:58:50;;;;;;;6.80;2.70;;;;;;;;;;5041260;28;20117;-75
2021/06/17 12:01:16;;;;;;;7.50;3.25;;;;;;;;;;5043386;28;20099;-75
2021/06/17 12:03:52;;;;;;;6.95;3.08;;;;;;;;;;5038881;28;20072;-74
2021/06/17 12:06:18;;;;;;;5.82;2.88;;;;;;;;;;5044728;28;20294;-75
2021/06/17 12:08:44;;;;;;;6.55;2.67;;;;;;;;;;5049295;28;20391;-75
2021/06/17 12:11:20;;;;;;;7.00;2.97;;;;;;;;;;5026305;28;20468;-75
2021/06/17 12:13:50;;;;;;;10.15;2.90;;;;;;;;;;5044555;28;20059;-76
2021/06/17 12:16:19;;;;;;;8.30;3.10;;;;;;;;;;5055932;28;20500;-75
2021/06/17 12:18:45;;;;;;;7.88;2.88;;;;;;;;;;5041321;28;20040;-74
2021/06/17 12:21:11;;;;;;;7.78;3.00;;;;;;;;;;5047877;28;20025;-75
2021/06/17 12:23:37;;;;;;;5.80;2.70;;;;;;;;;;5044680;28;20036;-74
2021/06/17 12:26:06;;;;;;;6.20;2.90;;;;;;;;;;5043227;28;20159;-74
2021/06/17 12:28:49;;;;;;;7.68;2.80;;;;;;;;;;5046762;28;20025;-76
2021/06/17 12:31:25;;;;;;;8.15;2.95;;;;;;;;;;5040136;28;20392;-75
2021/06/17 12:33:51;;;;;;;9.50;3.13;;;;;;;;;;5047922;28;20407;-75
2021/06/17 12:36:17;;;;;;;7.30;2.88;;;;;;;;;;5041585;28;20033;-74
2021/06/17 12:38:43;;;;;;;7.63;2.90;;;;;;;;;;5041848;28;20021;-75
2021/06/17 12:41:19;;;;;;;9.20;3.17;;;;;;;;;;5048490;28;20029;-76
2021/06/17 12:43:52;;;;;;;10.98;3.15;;;;;;;;;;5042733;28;20029;-75
2021/06/17 12:46:23;;;;;;;7.88;3.10;;;;;;;;;;5043950;28;20087;-75
2021/06/17 12:54:08;;;;;;;9.63;3.20;;;;;;;;;;5038589;28;20079;-75
2021/06/17 12:56:35;;;;;;;8.50;3.83;;;;;;;;;;5048390;28;20052;-75
2021/06/17 12:59:01;;;;;;;6.32;2.88;;;;;;;;;;5043736;28;20036;-74
2021/06/17 13:01:44;;;;;;;6.25;2.90;;;;;;;;;;5044495;28;20469;-74
2021/06/17 13:04:14;;;;;;;8.77;3.20;;;;;;;;;;5045529;28;20035;-75
2021/06/17 13:06:40;;;;;;;8.27;3.30;;;;;;;;;;5043938;28;20036;-74
2021/06/17 13:09:21;;;;;;;8.07;2.90;;;;;;;;;;5046148;28;20041;-75
2021/06/17 13:11:47;;;;;;;7.55;2.97;;;;;;;;;;5044372;28;20392;-75
2021/06/17 13:14:13;;;;;;;7.97;3.08;;;;;;;;;;5044435;28;20017;-74
2021/06/17 13:16:39;;;;;;;5.60;2.80;;;;;;;;;;5042552;28;20037;-75
2021/06/17 13:19:09;;;;;;;6.95;3.22;;;;;;;;;;5044427;28;20111;-75
2021/06/17 13:21:36;;;;;;;8.35;2.70;;;;;;;;;;5044245;28;20036;-75
2021/06/17 13:24:02;;;;;;;7.15;2.78;;;;;;;;;;5045835;28;20033;-74
2021/06/17 13:26:30;;;;;;;6.97;3.17;;;;;;;;;;5043293;28;20032;-74
2021/06/17 13:29:00;;;;;;;7.93;3.43;;;;;;;;;;5045312;28;20457;-74
2021/06/17 13:31:26;;;;;;;7.97;3.50;;;;;;;;;;5044048;28;20036;-76
2021/06/17 13:33:54;;;;;;;7.15;3.00;;;;;;;;;;5045023;28;20024;-75
2021/06/17 13:36:20;;;;;;;11.05;3.28;;;;;;;;;;5045072;28;20071;-74
2021/06/17 13:38:46;;;;;;;6.60;3.10;;;;;;;;;;5044999;28;20090;-74
2021/06/17 13:41:12;;;;;;;9.45;3.13;;;;;;;;;;5047385;28;20033;-75
2021/06/17 13:43:39;;;;;;;7.15;2.95;;;;;;;;;;5041203;28;20053;-74
2021/06/17 13:46:06;;;;;;;8.50;3.30;;;;;;;;;;5046643;28;20052;-75
2021/06/17 13:48:35;;;;;;;7.13;3.40;;;;;;;;;;5043063;28;20009;-75
2021/06/17 13:51:08;;;;;;;6.63;3.15;;;;;;;;;;5044721;28;20119;-75
2021/06/17 13:53:34;;;;;;;8.80;3.35;;;;;;;;;;5049911;28;20017;-76
2021/06/17 13:56:00;;;;;;;6.47;3.33;;;;;;;;;;5061170;28;20389;-74
2021/06/17 13:58:28;;;;;;;7.72;3.42;;;;;;;;;;5047792;28;20027;-75
2021/06/17 14:00:54;;;;;;;8.95;3.03;;;;;;;;;;5048396;28;20028;-75
2021/06/17 14:03:20;;;;;;;9.07;3.40;;;;;;;;;;5046305;28;20031;-75
2021/06/17 14:05:46;;;;;;;6.72;3.10;;;;;;;;;;5047982;28;20013;-75
2021/06/17 14:08:12;;;;;;;8.23;3.47;;;;;;;;;;5050186;28;20033;-76
2021/06/17 14:10:39;;;;;;;9.50;3.65;;;;;;;;;;5043121;28;20036;-75
2021/06/17 14:13:06;;;;;;;9.55;3.78;;;;;;;;;;5037885;28;20033;-76
2021/06/17 14:15:32;;;;;;;9.10;4.15;;;;;;;;;;5053405;28;20025;-75
2021/06/17 14:18:00;;;;;;;7.88;3.80;;;;;;;;;;5038556;28;20029;-77
2021/06/17 14:20:26;;;;;;;8.95;3.28;;;;;;;;;;5038609;28;20430;-75
2021/06/17 14:22:53;;;;;;;6.97;3.83;;;;;;;;;;5051810;28;20636;-76
2021/06/17 14:25:21;;;;;;;6.90;3.70;;;;;;;;;;5058548;28;20029;-75
2021/06/17 14:27:49;;;;;;;9.23;4.20;;;;;;;;;;5042684;28;20045;-76
2021/06/17 14:30:18;;;;;;;9.07;4.28;;;;;;;;;;5044627;28;20025;-76
2021/06/17 14:32:45;;;;;;;7.75;3.75;;;;;;;;;;5044826;28;20499;-76
2021/06/17 14:35:11;;;;;;;10.77;3.97;;;;;;;;;;5049739;28;20017;-75
2021/06/17 14:37:37;;;;;;;8.57;4.05;;;;;;;;;;5040377;28;20113;-75
2021/06/17 14:40:06;;;;;;;8.10;4.13;;;;;;;;;;5053181;28;20076;-76
2021/06/17 14:42:32;;;;;;;8.17;4.43;;;;;;;;;;5059064;28;20025;-73
2021/06/17 14:44:58;;;;;;;9.45;4.38;;;;;;;;;;5049099;28;20291;-75
2021/06/17 14:47:24;;;;;;;7.75;3.97;;;;;;;;;;5047297;28;20564;-75
2021/06/17 14:49:50;;;;;;;11.40;4.35;;;;;;;;;;5048168;28;20195;-75
2021/06/17 14:52:16;;;;;;;10.55;4.60;;;;;;;;;;5043104;28;20132;-75
2021/06/17 14:54:44;;;;;;;9.68;4.40;;;;;;;;;;5041006;28;20033;-75